createdAt,value
2023-03-29T00:00:09.024Z,87.79
2023-03-29T00:02:38.854Z,88.93
2023-03-29T00:05:06.898Z,89.58
2023-03-29T00:07:33.738Z,90.71
2023-03-29T00:10:01.478Z,92.37
2023-03-29T00:12:28.928Z,92.62
2023-03-29T00:14:55.735Z,93.00
2023-03-29T00:17:22.676Z,93.36
2023-03-29T00:19:49.544Z,93.75
2023-03-29T00:22:16.643Z,94.16
2023-03-29T00:24:43.443Z,95.01
2023-03-29T00:27:10.257Z,95.20
2023-03-29T00:29:36.979Z,95.55
2023-03-29T00:32:03.841Z,95.29
2023-03-29T00:34:36.177Z,94.98
2023-03-29T00:37:04.606Z,95.01
2023-03-29T00:39:31.321Z,94.93
2023-03-29T00:41:58.134Z,95.36
2023-03-29T00:44:54.269Z,94.70
2023-03-29T00:47:25.420Z,94.68
2023-03-29T00:49:52.946Z,94.41
2023-03-29T00:52:24.300Z,94.67
2023-03-29T00:54:54.009Z,93.98
2023-03-29T00:57:21.235Z,94.06
2023-03-29T00:59:48.652Z,93.89
2023-03-29T01:02:16.627Z,93.23
2023-03-29T01:04:51.027Z,93.56
2023-03-29T01:07:41.739Z,92.29
2023-03-29T01:10:13.362Z,92.72
2023-03-29T01:12:45.350Z,92.07
2023-03-29T01:15:14.648Z,91.47
2023-03-29T01:17:44.588Z,91.39
2023-03-29T01:20:27.122Z,91.49
2023-03-29T01:23:14.197Z,91.58
2023-03-29T01:25:48.254Z,91.28
2023-03-29T01:28:18.165Z,91.81
2023-03-29T01:30:55.051Z,91.92
2023-03-29T01:33:26.078Z,92.26
2023-03-29T01:36:16.578Z,92.73
2023-03-29T01:38:48.529Z,92.02
2023-03-29T01:41:15.440Z,92.19
2023-03-29T01:43:50.695Z,92.93
2023-03-29T01:46:37.761Z,93.62
2023-03-29T01:49:11.342Z,94.64
2023-03-29T01:52:06.673Z,93.62
2023-03-29T01:54:37.573Z,94.31
2023-03-29T01:57:05.861Z,95.40
2023-03-29T01:59:34.927Z,95.20
2023-03-29T02:02:06.077Z,95.35
2023-03-29T02:04:36.487Z,95.70
2023-03-29T02:07:05.990Z,96.38
2023-03-29T02:09:33.755Z,96.36
2023-03-29T02:12:04.591Z,96.93
2023-03-29T02:14:32.734Z,96.78
2023-03-29T02:17:25.182Z,97.11
2023-03-29T02:20:17.682Z,97.16
2023-03-29T02:23:04.688Z,97.56
2023-03-29T02:25:32.991Z,97.51
2023-03-29T02:28:01.029Z,97.83
2023-03-29T02:31:15.787Z,97.87
2023-03-29T02:33:57.342Z,97.89
2023-03-29T02:36:30.799Z,98.78
2023-03-29T02:38:59.548Z,98.97
2023-03-29T02:41:26.597Z,99.38
2023-03-29T02:43:53.592Z,99.35
2023-03-29T02:46:21.109Z,99.53
2023-03-29T02:48:49.939Z,98.98
2023-03-29T02:51:22.993Z,99.34
2023-03-29T02:54:00.285Z,99.41
2023-03-29T02:56:27.342Z,99.41
2023-03-29T02:58:54.074Z,99.11
2023-03-29T03:01:21.249Z,99.32
2023-03-29T03:03:50.751Z,99.35
2023-03-29T03:06:18.400Z,99.40
2023-03-29T03:08:45.911Z,99.04
2023-03-29T03:11:14.363Z,99.02
2023-03-29T03:13:41.128Z,98.69
2023-03-29T03:16:09.376Z,98.66
2023-03-29T03:18:36.392Z,98.72
2023-03-29T03:21:05.096Z,98.67
2023-03-29T03:23:32.106Z,98.80
2023-03-29T03:25:59.231Z,98.64
2023-03-29T03:28:27.454Z,98.08
2023-03-29T03:30:54.820Z,97.13
2023-03-29T03:33:24.992Z,97.33
2023-03-29T03:36:12.563Z,98.02
2023-03-29T03:38:44.135Z,98.48
2023-03-29T03:41:11.789Z,98.40
2023-03-29T03:43:41.555Z,98.35
2023-03-29T03:46:08.770Z,98.67
2023-03-29T03:48:36.039Z,98.85
2023-03-29T03:51:09.646Z,99.16
2023-03-29T03:53:36.620Z,98.86
2023-03-29T03:56:15.309Z,99.22
2023-03-29T03:58:57.356Z,98.84
2023-03-29T04:01:27.373Z,99.20
2023-03-29T04:04:08.459Z,99.34
2023-03-29T04:06:35.468Z,99.28
2023-03-29T04:09:22.762Z,99.45
2023-03-29T04:12:00.648Z,99.37
2023-03-29T04:14:28.080Z,99.51
2023-03-29T04:17:05.802Z,99.85
2023-03-29T04:20:11.132Z,99.50
2023-03-29T04:22:40.522Z,99.77
2023-03-29T04:25:11.864Z,100.00
2023-03-29T04:28:00.889Z,100.00
2023-03-29T04:30:52.564Z,100.00
2023-03-29T04:33:36.709Z,100.00
2023-03-29T04:36:09.483Z,100.00
2023-03-29T04:38:43.351Z,100.00
2023-03-29T04:41:15.330Z,100.00
2023-03-29T04:44:02.730Z,100.00
2023-03-29T04:46:32.405Z,99.83
2023-03-29T04:49:19.794Z,99.14
2023-03-29T04:51:53.497Z,98.96
2023-03-29T04:54:23.775Z,99.27
2023-03-29T04:57:09.195Z,98.22
2023-03-29T04:59:55.164Z,97.99
2023-03-29T05:02:51.076Z,97.95
2023-03-29T05:05:17.970Z,98.20
2023-03-29T05:07:46.686Z,98.19
2023-03-29T05:10:15.133Z,97.16
2023-03-29T05:12:42.634Z,96.72
2023-03-29T05:15:10.013Z,97.13
2023-03-29T05:17:37.628Z,97.14
2023-03-29T05:20:13.266Z,97.44
2023-03-29T05:22:45.999Z,97.06
2023-03-29T05:25:22.589Z,96.87
2023-03-29T05:27:49.449Z,96.07
2023-03-29T05:30:17.097Z,94.88
2023-03-29T05:32:49.922Z,94.52
2023-03-29T05:35:26.650Z,94.13
2023-03-29T05:37:55.864Z,91.98
2023-03-29T05:40:22.780Z,91.02
2023-03-29T05:43:16.259Z,91.01
2023-03-29T05:45:43.339Z,91.17
2023-03-29T05:48:10.813Z,90.44
2023-03-29T05:50:41.228Z,90.36
2023-03-29T05:53:08.145Z,90.47
2023-03-29T05:55:35.466Z,90.71
2023-03-29T05:58:02.656Z,90.94
2023-03-29T06:00:34.457Z,89.93
2023-03-29T06:03:21.178Z,89.87
2023-03-29T06:05:56.353Z,89.06
2023-03-29T06:08:23.603Z,87.73
2023-03-29T06:11:06.785Z,87.42
2023-03-29T06:13:53.944Z,86.98
2023-03-29T06:16:20.905Z,86.64
2023-03-29T06:18:48.060Z,83.78
2023-03-29T06:21:15.094Z,82.85
2023-03-29T06:23:41.978Z,81.02
2023-03-29T06:26:10.615Z,80.25
2023-03-29T06:28:38.295Z,79.27
2023-03-29T06:31:05.737Z,77.44
2023-03-29T06:33:40.475Z,77.36
2023-03-29T06:36:16.316Z,75.70
2023-03-29T06:38:45.618Z,75.16
2023-03-29T06:41:25.269Z,73.55
2023-03-29T06:44:11.607Z,73.58
2023-03-29T06:46:50.806Z,72.62
2023-03-29T06:49:19.287Z,71.54
2023-03-29T06:52:11.308Z,70.47
2023-03-29T06:54:39.098Z,69.34
2023-03-29T06:57:08.364Z,67.64
2023-03-29T06:59:36.281Z,65.70
2023-03-29T07:02:24.060Z,64.46
2023-03-29T07:04:56.273Z,61.93
2023-03-29T07:07:53.124Z,59.79
2023-03-29T07:10:33.879Z,58.61
2023-03-29T07:13:20.309Z,56.84
2023-03-29T07:15:50.363Z,55.83
2023-03-29T07:18:22.078Z,55.89
2023-03-29T07:20:49.423Z,56.08
2023-03-29T07:23:34.995Z,54.92
2023-03-29T07:26:02.838Z,54.86
2023-03-29T07:28:30.738Z,54.01
2023-03-29T07:31:11.110Z,53.93
2023-03-29T07:33:44.858Z,53.85
2023-03-29T07:36:12.032Z,54.27
2023-03-29T07:38:38.744Z,53.32
2023-03-29T07:41:13.674Z,52.34
2023-03-29T07:43:47.458Z,52.72
2023-03-29T07:46:17.633Z,52.41
2023-03-29T07:48:44.560Z,51.61
2023-03-29T07:51:21.302Z,51.22
2023-03-29T07:53:49.928Z,50.85
2023-03-29T07:56:35.184Z,49.70
2023-03-29T07:59:22.404Z,49.21
2023-03-29T08:01:58.880Z,49.23
2023-03-29T08:04:32.695Z,49.40
2023-03-29T08:07:19.049Z,49.11
2023-03-29T08:10:05.616Z,47.75
2023-03-29T08:13:04.350Z,46.37
2023-03-29T08:15:46.324Z,46.15
2023-03-29T08:18:23.192Z,46.05
2023-03-29T08:20:51.052Z,45.54
2023-03-29T08:23:21.340Z,44.92
2023-03-29T08:26:22.366Z,43.88
2023-03-29T08:28:50.752Z,44.04
2023-03-29T08:31:18.759Z,43.16
2023-03-29T08:33:45.724Z,42.63
2023-03-29T08:36:30.000Z,42.41
2023-03-29T08:39:03.093Z,42.64
2023-03-29T08:41:45.204Z,42.15
2023-03-29T08:44:24.054Z,41.55
2023-03-29T08:47:09.456Z,41.75
2023-03-29T08:49:41.801Z,41.66
2023-03-29T08:52:24.424Z,41.92
2023-03-29T08:54:53.003Z,41.46
2023-03-29T08:57:27.204Z,40.11
2023-03-29T09:00:02.034Z,40.03
2023-03-29T09:02:32.589Z,40.32
2023-03-29T09:05:31.149Z,39.76
2023-03-29T09:08:17.581Z,39.66
2023-03-29T09:11:08.151Z,38.92
2023-03-29T09:14:10.500Z,38.46
2023-03-29T09:17:05.423Z,38.07
2023-03-29T09:19:41.319Z,37.72
2023-03-29T09:22:20.867Z,38.43
2023-03-29T09:25:06.031Z,38.83
2023-03-29T09:27:49.722Z,39.00
2023-03-29T09:30:44.655Z,38.63
2023-03-29T09:33:28.974Z,39.48
2023-03-29T09:36:37.140Z,40.18
2023-03-29T09:39:04.578Z,40.01
2023-03-29T09:41:41.334Z,39.50
2023-03-29T09:44:28.217Z,39.60
2023-03-29T09:47:08.829Z,39.93
2023-03-29T09:49:40.435Z,39.94
2023-03-29T09:52:13.482Z,39.89
2023-03-29T09:54:45.739Z,39.91
2023-03-29T09:57:33.049Z,39.17
2023-03-29T10:00:05.770Z,39.78
2023-03-29T10:02:40.698Z,39.53
2023-03-29T10:05:15.937Z,39.58
2023-03-29T10:07:50.208Z,39.64
2023-03-29T10:10:34.865Z,39.90
2023-03-29T10:13:19.151Z,39.36
2023-03-29T10:16:05.830Z,39.78
2023-03-29T10:18:35.288Z,39.72
2023-03-29T10:21:04.526Z,40.41
2023-03-29T10:23:36.315Z,40.74
2023-03-29T10:26:06.588Z,42.14
2023-03-29T10:28:35.091Z,44.46
2023-03-29T10:31:04.959Z,45.69
2023-03-29T10:33:34.138Z,45.63
2023-03-29T10:36:06.695Z,45.79
2023-03-29T10:38:38.754Z,45.71
2023-03-29T10:41:10.117Z,46.60
2023-03-29T10:43:39.516Z,46.76
2023-03-29T10:46:11.040Z,47.08
2023-03-29T10:48:37.967Z,47.57
2023-03-29T10:51:06.121Z,47.89
2023-03-29T10:53:34.871Z,48.38
2023-03-29T10:56:13.901Z,48.50
2023-03-29T10:59:03.732Z,48.96
2023-03-29T11:02:02.846Z,50.13
2023-03-29T11:04:48.385Z,50.87
2023-03-29T11:07:49.108Z,50.50
2023-03-29T11:10:33.299Z,50.79
2023-03-29T11:13:15.423Z,50.69
2023-03-29T11:15:51.114Z,50.85
2023-03-29T11:19:17.464Z,49.91
2023-03-29T11:22:08.843Z,50.16
2023-03-29T11:24:50.424Z,50.91
2023-03-29T11:27:19.926Z,50.00
2023-03-29T11:30:07.247Z,50.93
2023-03-29T11:32:48.640Z,51.03
2023-03-29T11:35:27.465Z,52.32
2023-03-29T11:38:12.730Z,51.94
2023-03-29T11:40:47.794Z,52.76
2023-03-29T11:43:23.007Z,53.07
2023-03-29T11:45:58.664Z,52.47
2023-03-29T11:48:34.717Z,52.92
2023-03-29T11:51:11.309Z,53.02
2023-03-29T11:53:57.080Z,54.19
2023-03-29T11:56:37.029Z,54.92
2023-03-29T11:59:28.308Z,55.34
2023-03-29T12:01:57.414Z,56.74
2023-03-29T12:04:38.514Z,57.70
2023-03-29T12:07:24.303Z,57.58
2023-03-29T12:09:59.272Z,58.23
2023-03-29T12:12:41.097Z,57.72
2023-03-29T12:15:16.097Z,58.18
2023-03-29T12:18:01.551Z,58.14
2023-03-29T12:20:34.064Z,59.01
2023-03-29T12:23:02.497Z,59.26
2023-03-29T12:26:06.609Z,59.82
2023-03-29T12:29:00.187Z,59.86
2023-03-29T12:32:06.777Z,60.13
2023-03-29T12:35:02.842Z,61.13
2023-03-29T12:38:24.107Z,61.79
2023-03-29T12:41:16.951Z,63.31
2023-03-29T12:44:15.763Z,64.07
2023-03-29T12:46:58.816Z,65.32
2023-03-29T12:49:32.818Z,65.73
2023-03-29T12:52:00.754Z,66.56
2023-03-29T12:54:31.189Z,66.88
2023-03-29T12:57:01.677Z,68.31
2023-03-29T12:59:44.529Z,68.25
2023-03-29T13:02:14.525Z,69.86
2023-03-29T13:04:44.275Z,71.26
2023-03-29T13:07:15.339Z,72.41
2023-03-29T13:10:09.296Z,73.52
2023-03-29T13:12:39.755Z,75.19
2023-03-29T13:15:23.547Z,76.58
2023-03-29T13:17:53.350Z,78.06
2023-03-29T13:20:37.432Z,78.99
2023-03-29T13:23:26.589Z,80.49
2023-03-29T13:26:19.102Z,81.55
2023-03-29T13:28:57.261Z,82.23
2023-03-29T13:32:13.618Z,83.14
2023-03-29T13:34:45.774Z,83.57
2023-03-29T13:37:18.464Z,83.54
2023-03-29T13:39:51.253Z,83.37
2023-03-29T13:42:23.715Z,82.36
2023-03-29T13:44:51.048Z,82.13
2023-03-29T13:47:33.254Z,80.94
2023-03-29T13:50:07.199Z,80.17
2023-03-29T13:52:39.327Z,79.37
2023-03-29T13:55:13.622Z,77.91
2023-03-29T13:58:06.625Z,76.89
2023-03-29T14:00:50.170Z,76.38
2023-03-29T14:03:20.827Z,76.01
2023-03-29T14:05:49.576Z,75.69
2023-03-29T14:08:29.482Z,74.65
2023-03-29T14:10:57.167Z,75.23
2023-03-29T14:13:25.058Z,74.79
2023-03-29T14:16:12.014Z,74.83
2023-03-29T14:18:42.559Z,74.21
2023-03-29T14:21:12.194Z,74.53
2023-03-29T14:23:38.943Z,74.72
2023-03-29T14:26:25.320Z,75.16
2023-03-29T14:28:56.398Z,75.74
2023-03-29T14:31:26.417Z,76.17
2023-03-29T14:33:54.573Z,76.68
2023-03-29T14:36:22.073Z,77.39
2023-03-29T14:38:54.236Z,77.91
2023-03-29T14:41:24.274Z,78.77
2023-03-29T14:43:51.633Z,78.84
2023-03-29T14:46:21.464Z,79.06
2023-03-29T14:48:48.396Z,78.31
2023-03-29T14:51:15.229Z,77.87
2023-03-29T14:53:42.634Z,77.76
2023-03-29T14:56:11.929Z,76.71
2023-03-29T14:58:40.027Z,76.47
2023-03-29T15:01:14.647Z,76.65
2023-03-29T15:04:05.531Z,76.33
2023-03-29T15:06:34.850Z,76.49
2023-03-29T15:09:06.153Z,76.62
2023-03-29T15:11:34.872Z,77.04
2023-03-29T15:14:05.365Z,77.75
2023-03-29T15:16:33.512Z,78.02
2023-03-29T15:19:01.852Z,78.55
2023-03-29T15:21:32.789Z,79.33
2023-03-29T15:24:02.145Z,79.23
2023-03-29T15:26:34.487Z,79.47
2023-03-29T15:29:13.995Z,80.24
2023-03-29T15:31:42.995Z,80.66
2023-03-29T15:34:14.439Z,79.49
2023-03-29T15:36:48.257Z,78.82
2023-03-29T15:39:17.303Z,77.97
2023-03-29T15:41:51.581Z,77.51
2023-03-29T15:44:36.412Z,77.15
2023-03-29T15:47:03.483Z,76.82
2023-03-29T15:49:30.365Z,76.69
2023-03-29T15:51:57.316Z,76.33
2023-03-29T15:54:24.954Z,76.62
2023-03-29T15:56:53.728Z,75.93
2023-03-29T15:59:20.660Z,75.49
2023-03-29T16:01:47.651Z,75.55
2023-03-29T16:04:16.998Z,75.26
2023-03-29T16:06:47.687Z,74.10
2023-03-29T16:09:15.323Z,73.84
2023-03-29T16:11:43.383Z,74.01
2023-03-29T16:14:27.535Z,73.86
2023-03-29T16:16:57.296Z,73.59
2023-03-29T16:19:28.701Z,73.64
2023-03-29T16:21:56.197Z,73.46
2023-03-29T16:24:26.359Z,73.82
2023-03-29T16:26:55.715Z,74.10
2023-03-29T16:29:23.731Z,73.35
2023-03-29T16:31:51.192Z,73.54
2023-03-29T16:34:19.242Z,74.62
2023-03-29T16:36:49.473Z,74.82
2023-03-29T16:39:16.734Z,74.86
2023-03-29T16:41:45.358Z,74.31
2023-03-29T16:44:22.944Z,74.46
2023-03-29T16:46:52.747Z,76.35
2023-03-29T16:49:19.615Z,77.14
2023-03-29T16:51:47.365Z,77.78
2023-03-29T16:54:15.145Z,79.96
2023-03-29T16:56:44.177Z,81.90
2023-03-29T16:59:12.141Z,82.17
2023-03-29T17:01:40.857Z,83.32
2023-03-29T17:04:07.950Z,85.25
2023-03-29T17:06:34.749Z,88.26
2023-03-29T17:09:01.500Z,89.12
2023-03-29T17:11:29.018Z,89.75
2023-03-29T17:13:55.832Z,91.19
2023-03-29T17:16:23.138Z,92.98
2023-03-29T17:18:50.100Z,92.81
2023-03-29T17:21:16.843Z,93.02
2023-03-29T17:23:43.664Z,93.56
2023-03-29T17:26:11.957Z,92.79
2023-03-29T17:28:38.881Z,90.26
2023-03-29T17:31:07.641Z,89.77
2023-03-29T17:33:35.473Z,91.34
2023-03-29T17:36:03.603Z,94.78
2023-03-29T17:38:35.244Z,95.65
2023-03-29T17:41:03.040Z,96.37
2023-03-29T17:43:30.114Z,97.03
2023-03-29T17:45:56.889Z,97.47
2023-03-29T17:48:24.299Z,96.60
2023-03-29T17:50:55.425Z,96.56
2023-03-29T17:53:24.892Z,97.30
2023-03-29T17:55:52.364Z,96.64
2023-03-29T17:58:19.687Z,96.60
2023-03-29T18:00:46.430Z,96.52
2023-03-29T18:03:13.172Z,93.20
2023-03-29T18:05:39.978Z,91.52
2023-03-29T18:08:06.753Z,93.40
2023-03-29T18:10:36.958Z,94.35
2023-03-29T18:13:03.819Z,95.28
2023-03-29T18:15:30.552Z,96.63
2023-03-29T18:17:57.659Z,97.57
2023-03-29T18:20:24.446Z,98.72
2023-03-29T18:22:51.248Z,98.89
2023-03-29T18:25:18.494Z,98.58
2023-03-29T18:27:45.493Z,98.43
2023-03-29T18:30:15.788Z,98.58
2023-03-29T18:32:42.820Z,99.03
2023-03-29T18:35:10.343Z,100.00
2023-03-29T18:37:37.092Z,100.00
2023-03-29T18:40:08.206Z,99.68
2023-03-29T18:42:35.280Z,99.68
2023-03-29T18:45:02.236Z,98.41
2023-03-29T18:47:29.376Z,97.60
2023-03-29T18:49:56.116Z,97.83
2023-03-29T18:52:23.468Z,97.39
2023-03-29T18:54:50.220Z,95.18
2023-03-29T18:57:17.009Z,81.19
2023-03-29T18:59:43.818Z,82.85
2023-03-29T19:02:12.829Z,85.69
2023-03-29T19:04:39.568Z,87.02
2023-03-29T19:07:06.862Z,87.83
2023-03-29T19:09:33.664Z,89.43
2023-03-29T19:12:02.583Z,90.67
2023-03-29T19:14:29.672Z,92.06
2023-03-29T19:16:56.810Z,92.64
2023-03-29T19:19:25.037Z,93.05
2023-03-29T19:21:53.003Z,92.71
2023-03-29T19:24:19.811Z,91.84
2023-03-29T19:26:50.274Z,91.00
2023-03-29T19:29:17.074Z,90.36
2023-03-29T19:31:43.883Z,89.28
2023-03-29T19:34:11.221Z,89.28
2023-03-29T19:36:38.317Z,88.35
2023-03-29T19:39:05.885Z,88.00
2023-03-29T19:41:32.857Z,86.82
2023-03-29T19:43:59.684Z,87.48
2023-03-29T19:46:28.200Z,87.54
2023-03-29T19:48:56.327Z,87.82
2023-03-29T19:51:23.637Z,86.82
2023-03-29T19:53:50.448Z,85.78
2023-03-29T19:56:17.886Z,84.73
2023-03-29T19:58:44.689Z,84.16
2023-03-29T20:01:11.471Z,80.84
2023-03-29T20:03:39.110Z,80.42
2023-03-29T20:06:08.191Z,78.75
2023-03-29T20:08:39.051Z,78.08
2023-03-29T20:11:11.340Z,77.69
2023-03-29T20:13:39.320Z,77.14
2023-03-29T20:16:13.766Z,76.46
2023-03-29T20:18:40.784Z,76.69
2023-03-29T20:21:09.038Z,76.38
2023-03-29T20:23:38.791Z,76.55
2023-03-29T20:26:07.819Z,76.65
2023-03-29T20:28:37.869Z,76.56
2023-03-29T20:31:08.081Z,77.37
2023-03-29T20:33:34.938Z,77.12
2023-03-29T20:36:01.731Z,75.83
2023-03-29T20:38:28.770Z,75.44
2023-03-29T20:40:55.539Z,75.00
2023-03-29T20:43:22.295Z,74.43
2023-03-29T20:45:53.917Z,73.10
2023-03-29T20:48:23.558Z,74.04
2023-03-29T20:50:51.036Z,74.99
2023-03-29T20:53:20.797Z,75.99
2023-03-29T20:55:48.114Z,77.37
2023-03-29T20:58:15.996Z,78.61
2023-03-29T21:00:43.861Z,80.09
2023-03-29T21:03:11.227Z,81.70
2023-03-29T21:05:39.004Z,83.95
2023-03-29T21:08:06.552Z,85.50
2023-03-29T21:10:33.478Z,88.19
2023-03-29T21:13:01.574Z,89.46
2023-03-29T21:15:30.768Z,91.58
2023-03-29T21:17:58.727Z,93.22
2023-03-29T21:20:28.503Z,94.84
2023-03-29T21:22:55.253Z,96.83
2023-03-29T21:25:22.276Z,98.20
2023-03-29T21:27:49.303Z,99.53
2023-03-29T21:30:16.300Z,100.00
2023-03-29T21:32:43.162Z,100.00
2023-03-29T21:35:10.556Z,100.00
2023-03-29T21:37:37.476Z,100.00
2023-03-29T21:40:11.050Z,100.00
2023-03-29T21:42:37.881Z,100.00
2023-03-29T21:45:05.076Z,100.00
2023-03-29T21:47:31.842Z,100.00
2023-03-29T21:49:58.562Z,100.00
2023-03-29T21:52:25.610Z,100.00
2023-03-29T21:54:52.466Z,100.00
2023-03-29T21:57:19.231Z,100.00
2023-03-29T21:59:46.172Z,100.00
2023-03-29T22:02:12.949Z,100.00
2023-03-29T22:04:39.699Z,100.00
2023-03-29T22:07:10.771Z,100.00
2023-03-29T22:09:37.931Z,100.00
2023-03-29T22:12:05.222Z,100.00
2023-03-29T22:14:35.337Z,100.00
2023-03-29T22:17:05.878Z,100.00
2023-03-29T22:19:34.089Z,100.00
2023-03-29T22:22:01.769Z,100.00
2023-03-29T22:24:29.312Z,100.00
2023-03-29T22:26:56.150Z,100.00
2023-03-29T22:29:24.935Z,100.00
2023-03-29T22:31:51.722Z,100.00
2023-03-29T22:34:20.690Z,100.00
2023-03-29T22:36:47.452Z,100.00
2023-03-29T22:39:14.158Z,100.00
2023-03-29T22:41:41.215Z,100.00
2023-03-29T22:44:08.161Z,100.00
2023-03-29T22:46:34.894Z,100.00
2023-03-29T22:49:03.860Z,100.00
2023-03-29T22:51:30.698Z,100.00
2023-03-29T22:53:57.517Z,100.00
2023-03-29T22:56:25.021Z,100.00
2023-03-29T22:58:52.111Z,100.00
2023-03-29T23:01:19.088Z,100.00
2023-03-29T23:03:45.858Z,100.00
2023-03-29T23:06:12.654Z,100.00
2023-03-29T23:08:41.902Z,100.00
2023-03-29T23:11:08.714Z,100.00
2023-03-29T23:13:40.046Z,100.00
2023-03-29T23:16:07.728Z,100.00
2023-03-29T23:18:35.011Z,100.00
2023-03-29T23:21:02.706Z,100.00
2023-03-29T23:23:29.702Z,100.00
2023-03-29T23:25:56.704Z,100.00
2023-03-29T23:28:30.496Z,100.00
2023-03-29T23:31:06.162Z,100.00
2023-03-29T23:33:35.765Z,100.00
2023-03-29T23:36:04.894Z,100.00
2023-03-29T23:38:33.365Z,100.00
2023-03-29T23:41:02.729Z,100.00
2023-03-29T23:43:32.849Z,100.00
2023-03-29T23:46:17.061Z,100.00
2023-03-29T23:48:46.394Z,100.00
2023-03-29T23:51:13.437Z,100.00
2023-03-29T23:53:40.159Z,100.00
2023-03-29T23:56:08.190Z,100.00
2023-03-29T23:58:37.537Z,100.00
